createdAt,value
2023-05-05T00:00:52.354Z,6.05
2023-05-05T00:04:34.170Z,10.07
2023-05-05T00:08:16.653Z,8.55
2023-05-05T00:11:58.556Z,13.38
2023-05-05T00:15:42.149Z,4.15
2023-05-05T00:19:23.961Z,7.88
2023-05-05T00:23:05.942Z,9.35
2023-05-05T00:26:47.751Z,5.60
2023-05-05T00:30:30.162Z,6.40
2023-05-05T00:34:11.997Z,11.65
2023-05-05T00:37:53.813Z,7.28
2023-05-05T00:41:35.823Z,8.05
2023-05-05T00:45:19.135Z,15.90
2023-05-05T00:49:01.828Z,9.68
2023-05-05T00:52:43.728Z,8.32
2023-05-05T00:56:27.455Z,10.57
2023-05-05T01:00:10.119Z,8.05
2023-05-05T01:03:52.416Z,10.13
2023-05-05T01:08:05.993Z,10.98
2023-05-05T01:12:05.326Z,9.50
2023-05-05T01:15:51.026Z,10.00
2023-05-05T01:19:38.800Z,7.40
2023-05-05T01:24:05.663Z,11.82
2023-05-05T01:28:26.635Z,8.60
2023-05-05T01:32:11.462Z,13.07
2023-05-05T01:35:57.832Z,12.38
2023-05-05T01:39:42.512Z,8.68
2023-05-05T01:43:29.507Z,19.25
2023-05-05T01:51:05.375Z,15.07
2023-05-05T01:54:49.969Z,8.60
2023-05-05T01:58:32.842Z,9.95
2023-05-05T02:02:16.318Z,13.57
2023-05-05T02:06:00.489Z,9.57
2023-05-05T02:09:44.278Z,8.50
2023-05-05T02:13:27.338Z,8.93
2023-05-05T02:17:09.753Z,12.18
2023-05-05T02:20:53.219Z,11.52
2023-05-05T02:24:35.711Z,12.95
2023-05-05T02:28:41.097Z,11.88
2023-05-05T02:32:33.621Z,10.65
2023-05-05T02:36:20.549Z,13.38
2023-05-05T02:40:05.417Z,13.00
2023-05-05T02:43:49.964Z,11.40
2023-05-05T02:47:36.562Z,10.75
2023-05-05T02:51:18.423Z,13.38
2023-05-05T02:55:01.334Z,13.85
2023-05-05T02:58:53.092Z,7.88
2023-05-05T03:02:45.334Z,10.27
2023-05-05T03:06:29.309Z,11.93
2023-05-05T03:10:16.680Z,13.77
2023-05-05T03:14:13.236Z,11.98
2023-05-05T03:17:56.638Z,12.32
2023-05-05T03:21:39.794Z,9.38
2023-05-05T03:25:22.206Z,8.18
2023-05-05T03:29:06.752Z,9.40
2023-05-05T03:32:48.624Z,10.23
2023-05-05T03:36:30.881Z,12.10
2023-05-05T03:40:13.049Z,9.93
2023-05-05T03:43:55.136Z,6.13
2023-05-05T03:47:37.377Z,8.75
2023-05-05T03:51:19.322Z,4.22
2023-05-05T03:55:01.098Z,5.13
2023-05-05T03:58:42.900Z,5.93
2023-05-05T04:02:24.719Z,5.95
2023-05-05T04:06:06.613Z,5.60
2023-05-05T04:09:48.386Z,9.25
2023-05-05T04:13:30.199Z,6.60
2023-05-05T04:17:12.007Z,6.90
2023-05-05T04:20:53.827Z,7.20
2023-05-05T04:24:35.692Z,7.30
2023-05-05T04:28:18.211Z,8.82
2023-05-05T04:32:01.466Z,8.07
2023-05-05T04:35:43.271Z,7.70
2023-05-05T04:39:25.093Z,9.52
2023-05-05T04:43:07.521Z,12.00
2023-05-05T04:46:49.362Z,8.70
2023-05-05T04:50:31.837Z,5.93
2023-05-05T04:54:13.664Z,8.25
2023-05-05T04:57:55.553Z,7.45
2023-05-05T05:01:38.707Z,10.75
2023-05-05T05:05:21.637Z,11.23
2023-05-05T05:09:03.799Z,6.32
2023-05-05T05:12:48.254Z,7.07
2023-05-05T05:16:30.160Z,10.82
2023-05-05T05:20:12.124Z,11.07
2023-05-05T05:23:54.086Z,12.32
2023-05-05T05:27:35.905Z,14.15
2023-05-05T05:31:18.030Z,11.77
2023-05-05T05:34:59.912Z,8.50
2023-05-05T05:38:41.681Z,15.70
2023-05-05T05:42:23.477Z,10.23
2023-05-05T05:46:08.232Z,14.15
2023-05-05T05:49:51.079Z,8.05
2023-05-05T05:53:33.294Z,11.88
2023-05-05T05:57:15.186Z,9.75
2023-05-05T06:00:59.153Z,11.93
2023-05-05T06:04:41.050Z,5.57
2023-05-05T06:08:24.972Z,10.60
2023-05-05T06:12:07.146Z,11.48
2023-05-05T06:15:48.981Z,9.73
2023-05-05T06:19:30.812Z,11.45
2023-05-05T06:23:12.581Z,13.23
2023-05-05T06:26:54.407Z,13.63
2023-05-05T06:30:36.190Z,12.68
2023-05-05T06:34:18.352Z,13.30
2023-05-05T06:38:00.174Z,13.05
2023-05-05T06:41:42.054Z,9.65
2023-05-05T06:45:23.845Z,11.40
2023-05-05T06:49:05.664Z,13.68
2023-05-05T06:52:47.553Z,7.97
2023-05-05T06:56:30.374Z,10.55
2023-05-05T07:00:13.915Z,16.45
2023-05-05T07:03:56.194Z,13.25
2023-05-05T07:07:38.909Z,11.93
2023-05-05T07:11:20.991Z,10.80
2023-05-05T07:15:12.133Z,14.45
2023-05-05T07:18:54.268Z,8.18
2023-05-05T07:22:36.133Z,6.45
2023-05-05T07:26:17.981Z,13.00
2023-05-05T07:29:59.934Z,7.28
2023-05-05T07:33:42.290Z,10.02
2023-05-05T07:37:24.085Z,7.60
2023-05-05T07:41:06.698Z,8.52
2023-05-05T07:44:48.457Z,8.30
2023-05-05T07:48:30.314Z,11.52
2023-05-05T07:52:12.297Z,13.27
2023-05-05T07:55:54.226Z,6.15
2023-05-05T07:59:36.121Z,7.45
2023-05-05T08:03:20.549Z,7.35
2023-05-05T08:07:02.454Z,5.78
2023-05-05T08:10:44.263Z,8.05
2023-05-05T08:14:26.104Z,8.35
2023-05-05T08:18:07.972Z,7.75
2023-05-05T08:21:49.860Z,9.77
2023-05-05T08:25:31.727Z,8.52
2023-05-05T08:29:13.563Z,8.57
2023-05-05T08:32:55.484Z,13.07
2023-05-05T08:36:37.387Z,12.60
2023-05-05T08:40:22.879Z,12.10
2023-05-05T08:44:04.729Z,7.30
2023-05-05T08:47:46.666Z,5.60
2023-05-05T08:51:33.628Z,9.75
2023-05-05T08:55:26.402Z,10.70
2023-05-05T08:59:11.203Z,6.63
2023-05-05T09:02:56.455Z,7.05
2023-05-05T09:06:38.752Z,7.47
2023-05-05T09:10:21.011Z,8.85
2023-05-05T09:14:03.007Z,12.10
2023-05-05T09:17:45.311Z,9.77
2023-05-05T09:21:27.799Z,11.32
2023-05-05T09:25:12.319Z,6.95
2023-05-05T09:28:54.498Z,13.32
2023-05-05T09:32:50.938Z,12.02
2023-05-05T09:36:48.922Z,11.82
2023-05-05T09:40:54.034Z,8.95
2023-05-05T09:44:37.452Z,9.82
2023-05-05T09:48:30.675Z,6.88
2023-05-05T09:52:16.600Z,8.10
2023-05-05T09:56:00.509Z,4.93
2023-05-05T09:59:55.739Z,6.82
2023-05-05T10:03:52.080Z,8.88
2023-05-05T10:11:16.234Z,9.15
2023-05-05T10:15:01.310Z,5.88
2023-05-05T10:18:46.885Z,5.43
2023-05-05T10:22:32.751Z,5.20
2023-05-05T10:26:16.987Z,7.38
2023-05-05T10:30:07.392Z,5.13
2023-05-05T10:34:09.056Z,8.80
2023-05-05T10:37:51.577Z,7.57
2023-05-05T10:41:34.119Z,6.28
2023-05-05T10:45:16.388Z,5.65
2023-05-05T10:49:07.720Z,6.10
2023-05-05T10:53:19.084Z,7.55
2023-05-05T10:57:02.761Z,7.50
2023-05-05T11:00:51.233Z,6.82
2023-05-05T11:04:33.146Z,7.47
2023-05-05T11:08:27.149Z,4.15
2023-05-05T11:12:09.596Z,6.88
2023-05-05T11:15:56.038Z,5.78
2023-05-05T11:19:43.850Z,8.30
2023-05-05T11:23:26.588Z,12.70
2023-05-05T11:27:08.674Z,9.45
2023-05-05T11:30:57.294Z,11.32
2023-05-05T11:34:50.070Z,8.30
2023-05-05T11:39:07.369Z,10.55
2023-05-05T11:42:49.396Z,9.48
2023-05-05T11:46:31.243Z,6.22
2023-05-05T11:50:17.542Z,9.10
2023-05-05T11:53:59.763Z,8.75
2023-05-05T11:57:44.740Z,13.70
2023-05-05T12:01:26.889Z,9.43
2023-05-05T12:05:09.222Z,8.85
2023-05-05T12:08:53.744Z,7.22
2023-05-05T12:12:37.217Z,9.82
2023-05-05T12:16:22.501Z,12.32
2023-05-05T12:20:10.099Z,8.37
2023-05-05T12:23:52.190Z,12.55
2023-05-05T12:27:35.456Z,6.97
2023-05-05T12:31:17.503Z,11.93
2023-05-05T12:34:59.535Z,6.88
2023-05-05T12:38:42.150Z,10.45
2023-05-05T12:42:24.266Z,8.52
2023-05-05T12:46:11.156Z,6.10
2023-05-05T12:49:53.492Z,7.82
2023-05-05T12:53:35.344Z,7.20
2023-05-05T12:57:17.203Z,8.60
2023-05-05T13:01:09.101Z,7.63
2023-05-05T13:04:53.072Z,8.63
2023-05-05T13:08:44.267Z,11.30
2023-05-05T13:12:26.104Z,9.63
2023-05-05T13:16:07.942Z,11.75
2023-05-05T13:19:49.831Z,12.77
2023-05-05T13:23:31.633Z,7.20
2023-05-05T13:27:13.550Z,9.02
2023-05-05T13:30:55.855Z,5.90
2023-05-05T13:34:39.550Z,8.98
2023-05-05T13:38:21.489Z,6.03
2023-05-05T13:42:03.391Z,10.43
2023-05-05T13:45:45.432Z,8.75
2023-05-05T13:49:27.267Z,9.98
2023-05-05T13:53:09.327Z,9.05
2023-05-05T13:56:51.255Z,6.70
2023-05-05T14:00:34.624Z,9.77
2023-05-05T14:04:16.571Z,7.93
2023-05-05T14:07:59.762Z,9.80
2023-05-05T14:11:41.692Z,14.95
2023-05-05T14:15:23.554Z,12.55
2023-05-05T14:19:05.459Z,8.73
2023-05-05T14:22:49.316Z,14.85
2023-05-05T14:26:31.378Z,7.30
2023-05-05T14:30:13.700Z,8.77
2023-05-05T14:33:55.610Z,11.35
2023-05-05T14:37:37.437Z,6.80
2023-05-05T14:41:19.295Z,12.90
2023-05-05T14:45:03.474Z,9.00
2023-05-05T14:48:46.501Z,9.90
2023-05-05T14:52:28.326Z,9.48
2023-05-05T14:56:10.248Z,9.18
2023-05-05T14:59:53.092Z,14.68
2023-05-05T15:03:35.121Z,9.25
2023-05-05T15:07:17.236Z,10.60
2023-05-05T15:10:59.248Z,8.63
2023-05-05T15:14:41.083Z,8.23
2023-05-05T15:18:22.964Z,8.50
2023-05-05T15:22:04.781Z,8.82
2023-05-05T15:25:46.640Z,9.48
2023-05-05T15:29:28.501Z,7.35
2023-05-05T15:33:10.374Z,6.72
2023-05-05T15:36:52.237Z,4.63
2023-05-05T15:40:34.267Z,8.35
2023-05-05T15:44:16.104Z,8.77
2023-05-05T15:47:57.954Z,3.47
2023-05-05T15:51:39.960Z,5.00
2023-05-05T15:55:22.044Z,2.08
2023-05-05T15:59:03.962Z,7.15
2023-05-05T16:02:45.930Z,7.57
2023-05-05T16:06:28.434Z,6.60
2023-05-05T16:10:10.781Z,6.25
2023-05-05T16:13:53.424Z,7.97
2023-05-05T16:17:35.274Z,5.72
2023-05-05T16:21:17.123Z,5.85
2023-05-05T16:24:59.060Z,6.05
2023-05-05T16:28:40.938Z,4.47
2023-05-05T16:32:23.024Z,10.43
2023-05-05T16:36:05.451Z,6.45
2023-05-05T16:39:47.266Z,7.00
2023-05-05T16:43:29.362Z,12.05
2023-05-05T16:47:11.264Z,9.68
2023-05-05T16:50:53.065Z,5.80
2023-05-05T16:54:34.894Z,6.80
2023-05-05T16:58:16.762Z,7.68
2023-05-05T17:01:58.637Z,7.15
2023-05-05T17:05:40.641Z,6.85
2023-05-05T17:09:25.164Z,13.13
2023-05-05T17:13:07.820Z,12.40
2023-05-05T17:16:49.965Z,7.30
2023-05-05T17:20:32.464Z,10.23
2023-05-05T17:24:14.310Z,9.95
2023-05-05T17:27:56.236Z,8.60
2023-05-05T17:31:38.152Z,8.18
2023-05-05T17:35:20.171Z,10.35
2023-05-05T17:39:02.079Z,11.50
2023-05-05T17:42:44.033Z,13.90
2023-05-05T17:46:26.471Z,10.38
2023-05-05T17:50:10.707Z,11.30
2023-05-05T17:53:52.532Z,10.65
2023-05-05T17:57:35.310Z,16.02
2023-05-05T18:01:24.543Z,14.75
2023-05-05T18:05:06.785Z,12.43
2023-05-05T18:08:49.409Z,12.55
2023-05-05T18:12:31.268Z,12.88
2023-05-05T18:16:13.116Z,14.48
2023-05-05T18:19:55.078Z,11.60
2023-05-05T18:23:36.915Z,8.32
2023-05-05T18:27:18.741Z,14.88
2023-05-05T18:31:00.672Z,15.00
2023-05-05T18:34:42.658Z,17.92
2023-05-05T18:38:24.808Z,18.13
2023-05-05T18:42:08.310Z,12.23
2023-05-05T18:45:51.140Z,10.32
2023-05-05T18:49:33.446Z,11.50
2023-05-05T18:53:17.783Z,12.35
2023-05-05T18:56:59.794Z,14.90
2023-05-05T19:00:41.651Z,14.35
2023-05-05T19:04:30.705Z,15.23
2023-05-05T19:08:13.834Z,16.00
2023-05-05T19:11:55.735Z,16.15
2023-05-05T19:15:37.616Z,11.32
2023-05-05T19:19:19.400Z,11.00
2023-05-05T19:23:04.480Z,11.73
2023-05-05T19:26:46.333Z,14.63
2023-05-05T19:30:28.245Z,11.32
2023-05-05T19:34:10.032Z,13.18
2023-05-05T19:37:52.317Z,18.48
2023-05-05T19:41:35.578Z,16.65
2023-05-05T19:45:17.713Z,9.98
2023-05-05T19:48:59.680Z,14.43
2023-05-05T19:52:41.967Z,10.43
2023-05-05T19:56:23.973Z,14.07
2023-05-05T20:00:07.237Z,15.20
2023-05-05T20:03:49.834Z,16.50
2023-05-05T20:07:31.900Z,15.05
2023-05-05T20:11:15.958Z,17.83
2023-05-05T20:14:57.790Z,17.55
2023-05-05T20:18:40.381Z,14.02
2023-05-05T20:22:22.342Z,23.40
2023-05-05T20:26:04.270Z,16.55
2023-05-05T20:29:46.382Z,16.50
2023-05-05T20:33:28.998Z,17.92
2023-05-05T20:37:12.429Z,18.05
2023-05-05T20:40:55.816Z,16.98
2023-05-05T20:44:38.249Z,20.63
2023-05-05T20:48:20.157Z,18.95
2023-05-05T20:52:02.342Z,15.40
2023-05-05T20:55:44.571Z,15.68
2023-05-05T20:59:28.251Z,21.48
2023-05-05T21:03:10.202Z,23.90
2023-05-05T21:06:52.085Z,19.80
2023-05-05T21:10:34.391Z,21.30
2023-05-05T21:14:16.222Z,19.23
2023-05-05T21:17:58.148Z,30.73
2023-05-05T21:21:40.004Z,16.92
2023-05-05T21:25:22.399Z,16.15
2023-05-05T21:29:04.328Z,21.40
2023-05-05T21:32:46.302Z,16.13
2023-05-05T21:36:28.198Z,20.52
2023-05-05T21:40:13.546Z,21.65
2023-05-05T21:43:55.766Z,20.40
2023-05-05T21:47:37.698Z,14.38
2023-05-05T21:51:20.158Z,17.63
2023-05-05T21:55:02.184Z,17.40
2023-05-05T21:58:44.574Z,27.23
2023-05-05T22:02:26.464Z,19.98
2023-05-05T22:06:08.406Z,18.42
2023-05-05T22:09:50.304Z,24.15
2023-05-05T22:13:32.097Z,19.42
2023-05-05T22:17:13.983Z,27.67
2023-05-05T22:20:56.240Z,25.67
2023-05-05T22:24:38.054Z,20.90
2023-05-05T22:28:21.364Z,19.58
2023-05-05T22:32:03.201Z,17.80
2023-05-05T22:35:44.996Z,15.52
2023-05-05T22:39:27.166Z,20.05
2023-05-05T22:43:08.982Z,14.38
2023-05-05T22:46:50.894Z,20.98
2023-05-05T22:50:32.835Z,20.40
2023-05-05T22:54:14.835Z,28.48
2023-05-05T22:57:56.669Z,14.32
2023-05-05T23:01:38.940Z,22.17
2023-05-05T23:05:21.263Z,19.50
2023-05-05T23:09:03.172Z,24.17
2023-05-05T23:12:45.054Z,19.98
2023-05-05T23:16:26.939Z,19.20
2023-05-05T23:20:11.893Z,21.60
2023-05-05T23:23:55.053Z,22.70
2023-05-05T23:27:39.901Z,19.45
2023-05-05T23:31:22.279Z,11.05
2023-05-05T23:35:05.787Z,15.07
2023-05-05T23:38:47.664Z,18.10
2023-05-05T23:42:29.470Z,18.70
2023-05-05T23:46:11.373Z,13.35
2023-05-05T23:49:53.182Z,16.55
2023-05-05T23:53:35.058Z,16.38
2023-05-05T23:57:16.824Z,20.88
